sensor_id;sensor_type;location;lat;lon;timestamp;P1;durP1;ratioP1;P2;durP2;ratioP2
59970;SDS011;45825;45.434;9.116;2022-07-21T00:01:11;12.93;;;5.68;;
59970;SDS011;45825;45.434;9.116;2022-07-21T00:03:36;11.32;;;5.05;;
59970;SDS011;45825;45.434;9.116;2022-07-21T00:06:02;8.25;;;5.60;;
59970;SDS011;45825;45.434;9.116;2022-07-21T00:08:28;9.85;;;5.20;;
59970;SDS011;45825;45.434;9.116;2022-07-21T00:10:54;15.10;;;6.00;;
59970;SDS011;45825;45.434;9.116;2022-07-21T00:13:19;11.68;;;5.57;;
59970;SDS011;45825;45.434;9.116;2022-07-21T00:15:44;11.77;;;5.50;;
59970;SDS011;45825;45.434;9.116;2022-07-21T00:18:10;11.55;;;6.05;;
59970;SDS011;45825;45.434;9.116;2022-07-21T00:20:36;10.90;;;5.68;;
59970;SDS011;45825;45.434;9.116;2022-07-21T00:23:01;8.85;;;5.82;;
59970;SDS011;45825;45.434;9.116;2022-07-21T00:25:27;13.35;;;6.25;;
59970;SDS011;45825;45.434;9.116;2022-07-21T00:27:52;10.98;;;5.93;;
59970;SDS011;45825;45.434;9.116;2022-07-21T00:30:17;10.75;;;6.53;;
59970;SDS011;45825;45.434;9.116;2022-07-21T00:32:43;10.48;;;6.57;;
59970;SDS011;45825;45.434;9.116;2022-07-21T00:35:09;15.70;;;6.55;;
59970;SDS011;45825;45.434;9.116;2022-07-21T00:37:36;10.93;;;6.53;;
59970;SDS011;45825;45.434;9.116;2022-07-21T00:40:03;13.88;;;7.05;;
59970;SDS011;45825;45.434;9.116;2022-07-21T00:42:30;11.88;;;6.95;;
59970;SDS011;45825;45.434;9.116;2022-07-21T00:44:57;13.32;;;6.75;;
59970;SDS011;45825;45.434;9.116;2022-07-21T00:47:27;12.55;;;6.80;;
59970;SDS011;45825;45.434;9.116;2022-07-21T00:49:55;9.13;;;6.25;;
59970;SDS011;45825;45.434;9.116;2022-07-21T00:52:21;13.82;;;7.35;;
59970;SDS011;45825;45.434;9.116;2022-07-21T00:54:47;15.55;;;7.00;;
59970;SDS011;45825;45.434;9.116;2022-07-21T00:57:13;12.50;;;6.47;;
59970;SDS011;45825;45.434;9.116;2022-07-21T00:59:39;10.93;;;6.93;;
59970;SDS011;45825;45.434;9.116;2022-07-21T01:02:05;10.07;;;6.40;;
59970;SDS011;45825;45.434;9.116;2022-07-21T01:04:31;12.98;;;6.60;;
59970;SDS011;45825;45.434;9.116;2022-07-21T01:06:57;13.52;;;6.85;;
59970;SDS011;45825;45.434;9.116;2022-07-21T01:09:22;12.40;;;6.20;;
59970;SDS011;45825;45.434;9.116;2022-07-21T01:11:48;14.18;;;6.22;;
59970;SDS011;45825;45.434;9.116;2022-07-21T01:14:13;14.73;;;6.38;;
59970;SDS011;45825;45.434;9.116;2022-07-21T01:16:42;10.90;;;6.38;;
59970;SDS011;45825;45.434;9.116;2022-07-21T01:19:10;13.48;;;6.30;;
59970;SDS011;45825;45.434;9.116;2022-07-21T01:21:40;10.38;;;6.32;;
59970;SDS011;45825;45.434;9.116;2022-07-21T01:24:08;10.93;;;6.07;;
59970;SDS011;45825;45.434;9.116;2022-07-21T01:26:43;10.68;;;5.93;;
59970;SDS011;45825;45.434;9.116;2022-07-21T01:29:14;12.30;;;5.68;;
59970;SDS011;45825;45.434;9.116;2022-07-21T01:31:41;9.95;;;5.85;;
59970;SDS011;45825;45.434;9.116;2022-07-21T01:34:09;10.25;;;5.32;;
59970;SDS011;45825;45.434;9.116;2022-07-21T01:36:35;11.85;;;5.80;;
59970;SDS011;45825;45.434;9.116;2022-07-21T01:39:01;8.27;;;5.10;;
59970;SDS011;45825;45.434;9.116;2022-07-21T01:41:47;11.32;;;5.60;;
59970;SDS011;45825;45.434;9.116;2022-07-21T01:44:12;9.88;;;5.38;;
59970;SDS011;45825;45.434;9.116;2022-07-21T01:46:40;9.27;;;5.20;;
59970;SDS011;45825;45.434;9.116;2022-07-21T01:49:08;10.90;;;5.40;;
59970;SDS011;45825;45.434;9.116;2022-07-21T01:51:34;9.07;;;5.22;;
59970;SDS011;45825;45.434;9.116;2022-07-21T01:53:59;10.40;;;5.55;;
59970;SDS011;45825;45.434;9.116;2022-07-21T01:56:25;9.73;;;5.20;;
59970;SDS011;45825;45.434;9.116;2022-07-21T01:58:52;10.32;;;5.05;;
59970;SDS011;45825;45.434;9.116;2022-07-21T02:01:20;7.68;;;4.68;;
59970;SDS011;45825;45.434;9.116;2022-07-21T02:03:46;9.57;;;4.88;;
59970;SDS011;45825;45.434;9.116;2022-07-21T02:06:12;9.02;;;4.50;;
59970;SDS011;45825;45.434;9.116;2022-07-21T02:08:38;9.48;;;4.63;;
59970;SDS011;45825;45.434;9.116;2022-07-21T02:11:04;10.75;;;4.10;;
59970;SDS011;45825;45.434;9.116;2022-07-21T02:13:31;11.27;;;4.07;;
59970;SDS011;45825;45.434;9.116;2022-07-21T02:15:56;10.77;;;4.10;;
59970;SDS011;45825;45.434;9.116;2022-07-21T02:18:22;8.43;;;4.47;;
59970;SDS011;45825;45.434;9.116;2022-07-21T02:20:48;8.73;;;4.00;;
59970;SDS011;45825;45.434;9.116;2022-07-21T02:23:14;7.53;;;4.22;;
59970;SDS011;45825;45.434;9.116;2022-07-21T02:25:40;7.68;;;4.30;;
59970;SDS011;45825;45.434;9.116;2022-07-21T02:28:05;10.57;;;4.47;;
59970;SDS011;45825;45.434;9.116;2022-07-21T02:33:06;10.32;;;4.32;;
59970;SDS011;45825;45.434;9.116;2022-07-21T02:35:32;10.35;;;4.07;;
59970;SDS011;45825;45.434;9.116;2022-07-21T02:37:57;10.38;;;4.20;;
59970;SDS011;45825;45.434;9.116;2022-07-21T02:40:23;12.23;;;3.92;;
59970;SDS011;45825;45.434;9.116;2022-07-21T02:42:49;10.35;;;4.47;;
59970;SDS011;45825;45.434;9.116;2022-07-21T02:45:14;8.90;;;3.90;;
59970;SDS011;45825;45.434;9.116;2022-07-21T02:47:56;7.97;;;4.43;;
59970;SDS011;45825;45.434;9.116;2022-07-21T02:50:28;7.13;;;3.65;;
59970;SDS011;45825;45.434;9.116;2022-07-21T02:53:03;9.20;;;3.80;;
59970;SDS011;45825;45.434;9.116;2022-07-21T02:55:29;6.82;;;3.92;;
59970;SDS011;45825;45.434;9.116;2022-07-21T03:00:30;8.05;;;3.85;;
59970;SDS011;45825;45.434;9.116;2022-07-21T03:02:55;9.38;;;4.00;;
59970;SDS011;45825;45.434;9.116;2022-07-21T03:05:21;9.68;;;4.07;;
59970;SDS011;45825;45.434;9.116;2022-07-21T03:07:46;7.18;;;4.10;;
59970;SDS011;45825;45.434;9.116;2022-07-21T03:10:11;7.75;;;4.25;;
59970;SDS011;45825;45.434;9.116;2022-07-21T03:12:36;7.60;;;4.00;;
59970;SDS011;45825;45.434;9.116;2022-07-21T03:15:02;6.82;;;4.18;;
59970;SDS011;45825;45.434;9.116;2022-07-21T03:17:28;10.90;;;4.15;;
59970;SDS011;45825;45.434;9.116;2022-07-21T03:19:53;6.90;;;3.92;;
59970;SDS011;45825;45.434;9.116;2022-07-21T03:22:18;11.18;;;4.25;;
59970;SDS011;45825;45.434;9.116;2022-07-21T03:24:43;9.13;;;4.28;;
59970;SDS011;45825;45.434;9.116;2022-07-21T03:27:09;6.60;;;3.92;;
59970;SDS011;45825;45.434;9.116;2022-07-21T03:29:34;7.55;;;4.10;;
59970;SDS011;45825;45.434;9.116;2022-07-21T03:31:59;7.32;;;3.65;;
59970;SDS011;45825;45.434;9.116;2022-07-21T03:34:25;11.38;;;3.75;;
59970;SDS011;45825;45.434;9.116;2022-07-21T03:36:50;9.65;;;4.10;;
59970;SDS011;45825;45.434;9.116;2022-07-21T03:39:15;10.63;;;4.45;;
59970;SDS011;45825;45.434;9.116;2022-07-21T03:41:40;7.03;;;3.75;;
59970;SDS011;45825;45.434;9.116;2022-07-21T03:44:06;12.15;;;4.20;;
59970;SDS011;45825;45.434;9.116;2022-07-21T03:46:31;8.15;;;4.18;;
59970;SDS011;45825;45.434;9.116;2022-07-21T03:48:56;7.93;;;3.95;;
59970;SDS011;45825;45.434;9.116;2022-07-21T03:51:22;12.10;;;3.78;;
59970;SDS011;45825;45.434;9.116;2022-07-21T03:53:47;13.70;;;4.00;;
59970;SDS011;45825;45.434;9.116;2022-07-21T03:56:12;9.60;;;4.10;;
59970;SDS011;45825;45.434;9.116;2022-07-21T03:58:37;8.32;;;3.75;;
59970;SDS011;45825;45.434;9.116;2022-07-21T04:01:03;10.10;;;4.30;;
59970;SDS011;45825;45.434;9.116;2022-07-21T04:03:28;9.18;;;4.00;;
59970;SDS011;45825;45.434;9.116;2022-07-21T04:05:55;6.63;;;3.70;;
59970;SDS011;45825;45.434;9.116;2022-07-21T04:08:21;8.98;;;3.88;;
59970;SDS011;45825;45.434;9.116;2022-07-21T04:10:46;11.77;;;4.15;;
59970;SDS011;45825;45.434;9.116;2022-07-21T04:13:12;11.15;;;3.90;;
59970;SDS011;45825;45.434;9.116;2022-07-21T04:15:38;8.82;;;3.70;;
59970;SDS011;45825;45.434;9.116;2022-07-21T04:18:04;7.03;;;3.72;;
59970;SDS011;45825;45.434;9.116;2022-07-21T04:20:30;10.57;;;4.03;;
59970;SDS011;45825;45.434;9.116;2022-07-21T04:22:56;9.68;;;3.90;;
59970;SDS011;45825;45.434;9.116;2022-07-21T04:25:22;10.07;;;4.22;;
59970;SDS011;45825;45.434;9.116;2022-07-21T04:27:48;8.63;;;4.10;;
59970;SDS011;45825;45.434;9.116;2022-07-21T04:30:15;10.10;;;3.90;;
59970;SDS011;45825;45.434;9.116;2022-07-21T04:32:42;11.07;;;4.15;;
59970;SDS011;45825;45.434;9.116;2022-07-21T04:35:08;6.53;;;3.63;;
59970;SDS011;45825;45.434;9.116;2022-07-21T04:37:34;8.93;;;4.30;;
59970;SDS011;45825;45.434;9.116;2022-07-21T04:40:00;6.53;;;3.60;;
59970;SDS011;45825;45.434;9.116;2022-07-21T04:42:26;8.63;;;4.35;;
59970;SDS011;45825;45.434;9.116;2022-07-21T04:44:51;7.90;;;4.10;;
59970;SDS011;45825;45.434;9.116;2022-07-21T04:47:17;8.73;;;4.50;;
59970;SDS011;45825;45.434;9.116;2022-07-21T04:49:42;8.20;;;3.85;;
59970;SDS011;45825;45.434;9.116;2022-07-21T04:52:08;9.35;;;4.18;;
59970;SDS011;45825;45.434;9.116;2022-07-21T04:54:33;10.00;;;4.55;;
59970;SDS011;45825;45.434;9.116;2022-07-21T04:56:59;7.95;;;4.22;;
59970;SDS011;45825;45.434;9.116;2022-07-21T04:59:27;11.63;;;4.43;;
59970;SDS011;45825;45.434;9.116;2022-07-21T05:01:53;10.35;;;4.45;;
59970;SDS011;45825;45.434;9.116;2022-07-21T05:04:18;9.43;;;4.60;;
59970;SDS011;45825;45.434;9.116;2022-07-21T05:06:43;7.53;;;4.25;;
59970;SDS011;45825;45.434;9.116;2022-07-21T05:09:09;10.52;;;4.68;;
59970;SDS011;45825;45.434;9.116;2022-07-21T05:11:34;9.82;;;5.05;;
59970;SDS011;45825;45.434;9.116;2022-07-21T05:13:59;10.80;;;5.07;;
59970;SDS011;45825;45.434;9.116;2022-07-21T05:16:25;10.15;;;4.70;;
59970;SDS011;45825;45.434;9.116;2022-07-21T05:18:50;9.60;;;4.97;;
59970;SDS011;45825;45.434;9.116;2022-07-21T05:21:16;12.52;;;4.85;;
59970;SDS011;45825;45.434;9.116;2022-07-21T05:23:41;8.90;;;4.68;;
59970;SDS011;45825;45.434;9.116;2022-07-21T05:26:07;9.95;;;5.40;;
59970;SDS011;45825;45.434;9.116;2022-07-21T05:28:32;9.38;;;4.78;;
59970;SDS011;45825;45.434;9.116;2022-07-21T05:30:57;8.73;;;4.82;;
59970;SDS011;45825;45.434;9.116;2022-07-21T05:33:23;8.70;;;4.88;;
59970;SDS011;45825;45.434;9.116;2022-07-21T05:35:48;9.63;;;4.82;;
59970;SDS011;45825;45.434;9.116;2022-07-21T05:38:13;11.52;;;5.50;;
59970;SDS011;45825;45.434;9.116;2022-07-21T05:40:39;12.88;;;5.25;;
59970;SDS011;45825;45.434;9.116;2022-07-21T05:43:04;12.82;;;5.47;;
59970;SDS011;45825;45.434;9.116;2022-07-21T05:45:29;12.95;;;5.18;;
59970;SDS011;45825;45.434;9.116;2022-07-21T05:47:55;13.05;;;5.60;;
59970;SDS011;45825;45.434;9.116;2022-07-21T05:50:20;12.57;;;5.07;;
59970;SDS011;45825;45.434;9.116;2022-07-21T05:52:45;14.80;;;4.97;;
59970;SDS011;45825;45.434;9.116;2022-07-21T05:55:12;11.60;;;4.93;;
59970;SDS011;45825;45.434;9.116;2022-07-21T05:57:37;13.82;;;4.72;;
59970;SDS011;45825;45.434;9.116;2022-07-21T06:00:04;12.27;;;4.90;;
59970;SDS011;45825;45.434;9.116;2022-07-21T06:02:30;10.10;;;4.75;;
59970;SDS011;45825;45.434;9.116;2022-07-21T06:04:56;7.95;;;4.50;;
59970;SDS011;45825;45.434;9.116;2022-07-21T06:07:22;12.73;;;4.97;;
59970;SDS011;45825;45.434;9.116;2022-07-21T06:09:47;13.02;;;5.30;;
59970;SDS011;45825;45.434;9.116;2022-07-21T06:12:13;8.43;;;4.93;;
59970;SDS011;45825;45.434;9.116;2022-07-21T06:14:38;10.55;;;4.53;;
59970;SDS011;45825;45.434;9.116;2022-07-21T06:17:04;11.02;;;4.72;;
59970;SDS011;45825;45.434;9.116;2022-07-21T06:19:30;12.00;;;5.00;;
59970;SDS011;45825;45.434;9.116;2022-07-21T06:21:56;10.80;;;4.38;;
59970;SDS011;45825;45.434;9.116;2022-07-21T06:24:21;10.23;;;4.47;;
59970;SDS011;45825;45.434;9.116;2022-07-21T06:26:47;10.82;;;5.40;;
59970;SDS011;45825;45.434;9.116;2022-07-21T06:29:13;12.50;;;4.60;;
59970;SDS011;45825;45.434;9.116;2022-07-21T06:31:39;11.00;;;5.13;;
59970;SDS011;45825;45.434;9.116;2022-07-21T06:34:04;11.27;;;4.38;;
59970;SDS011;45825;45.434;9.116;2022-07-21T06:36:30;8.77;;;4.55;;
59970;SDS011;45825;45.434;9.116;2022-07-21T06:38:55;9.45;;;4.43;;
59970;SDS011;45825;45.434;9.116;2022-07-21T06:41:21;13.93;;;5.10;;
59970;SDS011;45825;45.434;9.116;2022-07-21T06:43:46;11.98;;;4.78;;
59970;SDS011;45825;45.434;9.116;2022-07-21T06:46:11;12.13;;;5.10;;
59970;SDS011;45825;45.434;9.116;2022-07-21T06:48:36;11.85;;;4.85;;
59970;SDS011;45825;45.434;9.116;2022-07-21T06:51:02;18.67;;;5.22;;
59970;SDS011;45825;45.434;9.116;2022-07-21T06:53:28;12.27;;;4.93;;
59970;SDS011;45825;45.434;9.116;2022-07-21T06:55:53;10.30;;;4.75;;
59970;SDS011;45825;45.434;9.116;2022-07-21T06:58:19;12.93;;;4.97;;
59970;SDS011;45825;45.434;9.116;2022-07-21T07:00:47;13.60;;;5.38;;
59970;SDS011;45825;45.434;9.116;2022-07-21T07:03:14;14.00;;;5.57;;
59970;SDS011;45825;45.434;9.116;2022-07-21T07:05:41;10.93;;;5.43;;
59970;SDS011;45825;45.434;9.116;2022-07-21T07:08:07;12.05;;;5.05;;
59970;SDS011;45825;45.434;9.116;2022-07-21T07:10:33;12.38;;;5.50;;
59970;SDS011;45825;45.434;9.116;2022-07-21T07:12:58;11.27;;;5.00;;
59970;SDS011;45825;45.434;9.116;2022-07-21T07:15:24;9.73;;;4.93;;
59970;SDS011;45825;45.434;9.116;2022-07-21T07:17:50;11.13;;;4.93;;
59970;SDS011;45825;45.434;9.116;2022-07-21T07:20:16;8.95;;;4.80;;
59970;SDS011;45825;45.434;9.116;2022-07-21T07:22:41;13.32;;;5.07;;
59970;SDS011;45825;45.434;9.116;2022-07-21T07:25:07;11.65;;;4.72;;
59970;SDS011;45825;45.434;9.116;2022-07-21T07:27:33;9.63;;;4.35;;
59970;SDS011;45825;45.434;9.116;2022-07-21T07:29:58;10.75;;;3.67;;
59970;SDS011;45825;45.434;9.116;2022-07-21T07:32:23;7.35;;;3.78;;
59970;SDS011;45825;45.434;9.116;2022-07-21T07:34:49;9.25;;;3.60;;
59970;SDS011;45825;45.434;9.116;2022-07-21T07:37:14;10.95;;;3.90;;
59970;SDS011;45825;45.434;9.116;2022-07-21T07:39:41;16.00;;;3.90;;
59970;SDS011;45825;45.434;9.116;2022-07-21T07:42:06;8.23;;;3.63;;
59970;SDS011;45825;45.434;9.116;2022-07-21T07:44:32;8.05;;;4.13;;
59970;SDS011;45825;45.434;9.116;2022-07-21T07:46:58;10.77;;;3.72;;
59970;SDS011;45825;45.434;9.116;2022-07-21T07:49:26;12.63;;;4.00;;
59970;SDS011;45825;45.434;9.116;2022-07-21T07:51:52;10.60;;;4.20;;
59970;SDS011;45825;45.434;9.116;2022-07-21T07:54:17;13.07;;;6.47;;
59970;SDS011;45825;45.434;9.116;2022-07-21T07:56:42;12.38;;;4.68;;
59970;SDS011;45825;45.434;9.116;2022-07-21T07:59:08;11.10;;;4.43;;
59970;SDS011;45825;45.434;9.116;2022-07-21T08:01:33;11.43;;;7.18;;
59970;SDS011;45825;45.434;9.116;2022-07-21T08:03:58;11.82;;;8.00;;
59970;SDS011;45825;45.434;9.116;2022-07-21T08:06:24;10.57;;;4.50;;
59970;SDS011;45825;45.434;9.116;2022-07-21T08:08:49;14.23;;;4.60;;
59970;SDS011;45825;45.434;9.116;2022-07-21T08:11:14;8.85;;;4.05;;
59970;SDS011;45825;45.434;9.116;2022-07-21T08:13:40;10.05;;;4.40;;
59970;SDS011;45825;45.434;9.116;2022-07-21T08:16:06;11.90;;;4.53;;
59970;SDS011;45825;45.434;9.116;2022-07-21T08:18:31;13.27;;;4.50;;
59970;SDS011;45825;45.434;9.116;2022-07-21T08:20:57;12.80;;;4.38;;
59970;SDS011;45825;45.434;9.116;2022-07-21T08:23:22;13.23;;;4.40;;
59970;SDS011;45825;45.434;9.116;2022-07-21T08:25:47;17.48;;;4.60;;
59970;SDS011;45825;45.434;9.116;2022-07-21T08:28:13;12.00;;;3.80;;
59970;SDS011;45825;45.434;9.116;2022-07-21T08:30:38;10.20;;;3.97;;
59970;SDS011;45825;45.434;9.116;2022-07-21T08:33:04;7.95;;;4.10;;
59970;SDS011;45825;45.434;9.116;2022-07-21T08:35:30;10.93;;;3.85;;
59970;SDS011;45825;45.434;9.116;2022-07-21T08:38:00;10.43;;;3.90;;
59970;SDS011;45825;45.434;9.116;2022-07-21T08:40:32;8.25;;;3.30;;
59970;SDS011;45825;45.434;9.116;2022-07-21T08:43:03;7.65;;;3.45;;
59970;SDS011;45825;45.434;9.116;2022-07-21T08:45:29;11.23;;;3.97;;
59970;SDS011;45825;45.434;9.116;2022-07-21T08:47:56;8.52;;;3.50;;
59970;SDS011;45825;45.434;9.116;2022-07-21T08:50:23;8.55;;;3.70;;
59970;SDS011;45825;45.434;9.116;2022-07-21T08:52:50;7.47;;;3.42;;
59970;SDS011;45825;45.434;9.116;2022-07-21T08:55:16;9.07;;;3.17;;
59970;SDS011;45825;45.434;9.116;2022-07-21T08:57:41;7.20;;;2.97;;
59970;SDS011;45825;45.434;9.116;2022-07-21T09:00:07;6.85;;;3.03;;
59970;SDS011;45825;45.434;9.116;2022-07-21T09:02:36;10.30;;;3.80;;
59970;SDS011;45825;45.434;9.116;2022-07-21T09:05:03;8.55;;;3.22;;
59970;SDS011;45825;45.434;9.116;2022-07-21T09:07:49;8.32;;;3.20;;
59970;SDS011;45825;45.434;9.116;2022-07-21T09:10:20;10.40;;;3.20;;
59970;SDS011;45825;45.434;9.116;2022-07-21T09:12:54;7.30;;;3.30;;
59970;SDS011;45825;45.434;9.116;2022-07-21T09:15:26;7.93;;;3.28;;
59970;SDS011;45825;45.434;9.116;2022-07-21T09:18:06;7.70;;;3.40;;
59970;SDS011;45825;45.434;9.116;2022-07-21T09:20:32;10.20;;;3.47;;
59970;SDS011;45825;45.434;9.116;2022-07-21T09:23:05;8.35;;;3.58;;
59970;SDS011;45825;45.434;9.116;2022-07-21T09:25:36;7.82;;;3.40;;
59970;SDS011;45825;45.434;9.116;2022-07-21T09:28:06;6.03;;;3.15;;
59970;SDS011;45825;45.434;9.116;2022-07-21T09:30:52;7.28;;;2.83;;
59970;SDS011;45825;45.434;9.116;2022-07-21T09:33:37;9.43;;;3.15;;
59970;SDS011;45825;45.434;9.116;2022-07-21T09:36:15;8.57;;;3.20;;
59970;SDS011;45825;45.434;9.116;2022-07-21T09:38:43;6.53;;;2.90;;
59970;SDS011;45825;45.434;9.116;2022-07-21T09:41:16;9.88;;;3.10;;
59970;SDS011;45825;45.434;9.116;2022-07-21T09:43:44;9.95;;;3.08;;
59970;SDS011;45825;45.434;9.116;2022-07-21T09:46:17;7.35;;;3.20;;
59970;SDS011;45825;45.434;9.116;2022-07-21T09:48:46;7.47;;;3.00;;
59970;SDS011;45825;45.434;9.116;2022-07-21T09:51:21;8.63;;;3.20;;
59970;SDS011;45825;45.434;9.116;2022-07-21T09:56:26;7.60;;;2.95;;
59970;SDS011;45825;45.434;9.116;2022-07-21T09:58:57;8.88;;;3.17;;
59970;SDS011;45825;45.434;9.116;2022-07-21T10:01:23;8.07;;;3.08;;
59970;SDS011;45825;45.434;9.116;2022-07-21T10:03:50;7.85;;;3.35;;
59970;SDS011;45825;45.434;9.116;2022-07-21T10:06:17;7.90;;;3.30;;
59970;SDS011;45825;45.434;9.116;2022-07-21T10:08:44;6.07;;;3.00;;
59970;SDS011;45825;45.434;9.116;2022-07-21T10:11:10;10.73;;;3.45;;
59970;SDS011;45825;45.434;9.116;2022-07-21T10:13:36;10.15;;;3.30;;
59970;SDS011;45825;45.434;9.116;2022-07-21T10:16:02;10.82;;;3.50;;
59970;SDS011;45825;45.434;9.116;2022-07-21T10:18:30;9.20;;;3.42;;
59970;SDS011;45825;45.434;9.116;2022-07-21T10:21:04;6.93;;;3.55;;
59970;SDS011;45825;45.434;9.116;2022-07-21T10:23:42;8.50;;;3.38;;
59970;SDS011;45825;45.434;9.116;2022-07-21T10:26:09;7.90;;;3.47;;
59970;SDS011;45825;45.434;9.116;2022-07-21T10:28:36;7.47;;;3.00;;
59970;SDS011;45825;45.434;9.116;2022-07-21T10:31:21;7.07;;;3.30;;
59970;SDS011;45825;45.434;9.116;2022-07-21T10:41:45;7.90;;;3.90;;
59970;SDS011;45825;45.434;9.116;2022-07-21T10:47:14;9.40;;;4.10;;
59970;SDS011;45825;45.434;9.116;2022-07-21T10:55:18;10.98;;;4.07;;
59970;SDS011;45825;45.434;9.116;2022-07-21T10:58:11;7.00;;;3.88;;
59970;SDS011;45825;45.434;9.116;2022-07-21T11:03:21;7.60;;;4.00;;
59970;SDS011;45825;45.434;9.116;2022-07-21T11:14:41;7.18;;;3.55;;
59970;SDS011;45825;45.434;9.116;2022-07-21T11:17:09;8.95;;;3.53;;
59970;SDS011;45825;45.434;9.116;2022-07-21T11:19:39;7.80;;;3.30;;
59970;SDS011;45825;45.434;9.116;2022-07-21T11:22:16;7.78;;;3.72;;
59970;SDS011;45825;45.434;9.116;2022-07-21T11:24:45;7.75;;;3.35;;
59970;SDS011;45825;45.434;9.116;2022-07-21T11:27:17;10.38;;;3.45;;
59970;SDS011;45825;45.434;9.116;2022-07-21T11:29:45;8.60;;;3.55;;
59970;SDS011;45825;45.434;9.116;2022-07-21T11:32:11;8.25;;;3.45;;
59970;SDS011;45825;45.434;9.116;2022-07-21T11:34:54;9.70;;;3.60;;
59970;SDS011;45825;45.434;9.116;2022-07-21T11:37:38;9.38;;;3.88;;
59970;SDS011;45825;45.434;9.116;2022-07-21T11:42:38;5.95;;;3.35;;
59970;SDS011;45825;45.434;9.116;2022-07-21T11:45:05;8.77;;;3.47;;
59970;SDS011;45825;45.434;9.116;2022-07-21T11:47:32;8.95;;;3.60;;
59970;SDS011;45825;45.434;9.116;2022-07-21T11:49:58;7.88;;;3.72;;
59970;SDS011;45825;45.434;9.116;2022-07-21T11:52:27;7.60;;;3.58;;
59970;SDS011;45825;45.434;9.116;2022-07-21T11:54:54;6.57;;;3.50;;
59970;SDS011;45825;45.434;9.116;2022-07-21T11:57:21;6.70;;;3.40;;
59970;SDS011;45825;45.434;9.116;2022-07-21T11:59:49;10.38;;;3.40;;
59970;SDS011;45825;45.434;9.116;2022-07-21T12:04:43;7.93;;;3.53;;
59970;SDS011;45825;45.434;9.116;2022-07-21T12:07:33;8.57;;;4.20;;
59970;SDS011;45825;45.434;9.116;2022-07-21T12:10:07;5.35;;;3.42;;
59970;SDS011;45825;45.434;9.116;2022-07-21T12:12:47;7.05;;;3.53;;
59970;SDS011;45825;45.434;9.116;2022-07-21T12:15:15;6.25;;;3.55;;
59970;SDS011;45825;45.434;9.116;2022-07-21T12:17:46;7.78;;;3.35;;
59970;SDS011;45825;45.434;9.116;2022-07-21T12:20:13;9.85;;;3.90;;
59970;SDS011;45825;45.434;9.116;2022-07-21T12:22:41;7.32;;;3.63;;
59970;SDS011;45825;45.434;9.116;2022-07-21T12:25:14;8.15;;;3.60;;
59970;SDS011;45825;45.434;9.116;2022-07-21T12:30:09;6.68;;;3.65;;
59970;SDS011;45825;45.434;9.116;2022-07-21T12:32:53;6.95;;;3.85;;
59970;SDS011;45825;45.434;9.116;2022-07-21T12:35:23;8.52;;;3.85;;
59970;SDS011;45825;45.434;9.116;2022-07-21T12:37:58;6.03;;;3.83;;
59970;SDS011;45825;45.434;9.116;2022-07-21T12:40:26;7.32;;;3.67;;
59970;SDS011;45825;45.434;9.116;2022-07-21T12:48:21;6.47;;;4.07;;
59970;SDS011;45825;45.434;9.116;2022-07-21T12:51:01;8.23;;;4.07;;
59970;SDS011;45825;45.434;9.116;2022-07-21T12:53:31;7.70;;;4.00;;
59970;SDS011;45825;45.434;9.116;2022-07-21T12:55:58;6.13;;;3.78;;
59970;SDS011;45825;45.434;9.116;2022-07-21T12:58:23;8.00;;;4.10;;
59970;SDS011;45825;45.434;9.116;2022-07-21T13:00:49;7.15;;;4.00;;
59970;SDS011;45825;45.434;9.116;2022-07-21T13:03:14;7.43;;;4.15;;
59970;SDS011;45825;45.434;9.116;2022-07-21T13:05:40;7.10;;;4.38;;
59970;SDS011;45825;45.434;9.116;2022-07-21T13:08:05;9.57;;;4.32;;
59970;SDS011;45825;45.434;9.116;2022-07-21T13:10:30;8.18;;;4.47;;
59970;SDS011;45825;45.434;9.116;2022-07-21T13:12:56;8.68;;;4.20;;
59970;SDS011;45825;45.434;9.116;2022-07-21T13:15:21;13.60;;;4.47;;
59970;SDS011;45825;45.434;9.116;2022-07-21T13:17:47;9.60;;;4.50;;
59970;SDS011;45825;45.434;9.116;2022-07-21T13:20:12;7.68;;;4.22;;
59970;SDS011;45825;45.434;9.116;2022-07-21T13:22:39;6.55;;;3.97;;
59970;SDS011;45825;45.434;9.116;2022-07-21T13:25:05;6.22;;;4.13;;
59970;SDS011;45825;45.434;9.116;2022-07-21T13:27:32;7.63;;;4.20;;
59970;SDS011;45825;45.434;9.116;2022-07-21T13:29:58;6.65;;;4.07;;
59970;SDS011;45825;45.434;9.116;2022-07-21T13:32:24;6.75;;;4.13;;
59970;SDS011;45825;45.434;9.116;2022-07-21T13:34:49;7.95;;;4.40;;
59970;SDS011;45825;45.434;9.116;2022-07-21T13:37:15;7.00;;;4.30;;
59970;SDS011;45825;45.434;9.116;2022-07-21T13:39:40;8.20;;;4.20;;
59970;SDS011;45825;45.434;9.116;2022-07-21T13:42:06;15.43;;;4.50;;
59970;SDS011;45825;45.434;9.116;2022-07-21T13:44:32;8.00;;;4.80;;
59970;SDS011;45825;45.434;9.116;2022-07-21T13:46:59;7.43;;;4.60;;
59970;SDS011;45825;45.434;9.116;2022-07-21T13:49:24;8.38;;;4.25;;
59970;SDS011;45825;45.434;9.116;2022-07-21T13:51:49;7.53;;;4.35;;
59970;SDS011;45825;45.434;9.116;2022-07-21T13:54:15;10.35;;;4.40;;
59970;SDS011;45825;45.434;9.116;2022-07-21T13:56:40;9.85;;;4.43;;
59970;SDS011;45825;45.434;9.116;2022-07-21T13:59:05;8.88;;;4.30;;
59970;SDS011;45825;45.434;9.116;2022-07-21T14:01:31;7.72;;;4.53;;
59970;SDS011;45825;45.434;9.116;2022-07-21T14:03:56;9.20;;;4.40;;
59970;SDS011;45825;45.434;9.116;2022-07-21T14:06:22;8.93;;;4.65;;
59970;SDS011;45825;45.434;9.116;2022-07-21T14:08:47;9.38;;;4.80;;
59970;SDS011;45825;45.434;9.116;2022-07-21T14:11:12;10.55;;;4.45;;
59970;SDS011;45825;45.434;9.116;2022-07-21T14:16:14;8.73;;;4.78;;
59970;SDS011;45825;45.434;9.116;2022-07-21T14:18:39;7.80;;;4.72;;
59970;SDS011;45825;45.434;9.116;2022-07-21T14:21:05;8.35;;;5.00;;
59970;SDS011;45825;45.434;9.116;2022-07-21T14:23:31;7.20;;;4.68;;
59970;SDS011;45825;45.434;9.116;2022-07-21T14:25:57;6.85;;;5.05;;
59970;SDS011;45825;45.434;9.116;2022-07-21T14:28:23;10.88;;;5.30;;
59970;SDS011;45825;45.434;9.116;2022-07-21T14:30:48;8.52;;;5.30;;
59970;SDS011;45825;45.434;9.116;2022-07-21T14:33:14;8.48;;;5.30;;
59970;SDS011;45825;45.434;9.116;2022-07-21T14:35:39;11.45;;;6.07;;
59970;SDS011;45825;45.434;9.116;2022-07-21T14:38:05;8.38;;;5.47;;
59970;SDS011;45825;45.434;9.116;2022-07-21T14:40:30;8.85;;;4.95;;
59970;SDS011;45825;45.434;9.116;2022-07-21T14:42:56;7.88;;;5.40;;
59970;SDS011;45825;45.434;9.116;2022-07-21T14:45:22;11.27;;;5.80;;
59970;SDS011;45825;45.434;9.116;2022-07-21T14:47:51;9.15;;;5.90;;
59970;SDS011;45825;45.434;9.116;2022-07-21T14:52:44;8.38;;;5.80;;
59970;SDS011;45825;45.434;9.116;2022-07-21T14:55:09;11.52;;;6.13;;
59970;SDS011;45825;45.434;9.116;2022-07-21T14:57:35;7.78;;;5.70;;
59970;SDS011;45825;45.434;9.116;2022-07-21T15:00:01;7.18;;;5.40;;
59970;SDS011;45825;45.434;9.116;2022-07-21T15:02:28;8.65;;;5.72;;
59970;SDS011;45825;45.434;9.116;2022-07-21T15:04:53;8.65;;;6.35;;
59970;SDS011;45825;45.434;9.116;2022-07-21T15:07:18;11.47;;;5.60;;
59970;SDS011;45825;45.434;9.116;2022-07-21T15:09:44;8.77;;;6.13;;
59970;SDS011;45825;45.434;9.116;2022-07-21T15:12:09;7.70;;;5.90;;
59970;SDS011;45825;45.434;9.116;2022-07-21T15:14:35;8.50;;;5.90;;
59970;SDS011;45825;45.434;9.116;2022-07-21T15:17:01;10.50;;;6.00;;
59970;SDS011;45825;45.434;9.116;2022-07-21T15:19:27;8.32;;;5.88;;
59970;SDS011;45825;45.434;9.116;2022-07-21T15:21:52;10.40;;;5.80;;
59970;SDS011;45825;45.434;9.116;2022-07-21T15:24:17;8.10;;;5.80;;
59970;SDS011;45825;45.434;9.116;2022-07-21T15:26:43;7.97;;;5.85;;
59970;SDS011;45825;45.434;9.116;2022-07-21T15:29:08;11.10;;;5.90;;
59970;SDS011;45825;45.434;9.116;2022-07-21T15:31:34;11.00;;;5.55;;
59970;SDS011;45825;45.434;9.116;2022-07-21T15:34:00;8.95;;;5.85;;
59970;SDS011;45825;45.434;9.116;2022-07-21T15:36:26;9.52;;;5.63;;